Weather at Ashland Municipal Sumner Parker Field

Public forecast

Using degrees Fahrenheit for public forecast. Weather courtesy of forecast.io.

Closest aviation weather report (METAR) to Ashland Municipal Sumner Parker Field

Closest report is Rogue Valley International Medford Airport, 14.5 nm (26.9 km) NW. Retrieved 2020/09/27 19:53 UTC (32 minutes ago):

KMFR 271953Z 00000KT 10SM CLR 22/09 A3027 RMK AO2 SLP244 T02170089

Closest aviation forecast (TAF) to Ashland Municipal Sumner Parker Field

Closest forecast is Rogue Valley International Medford Airport, 14.5 nm (26.9 km) NW. Retrieved 2020/09/27 18:28 UTC (2 hours ago):

TAF KMFR 271726Z 2718/2818 00000KT P6SM SKC FM272300 03008KT P6SM SKC FM280400 VRB03KT P6SM SKC